Terminal Aerodrome Forecast
Issued by NWS Portland, OR

Home | Current Version | Previous Version | Text Only | Print | Product List | Glossary On
Versions: 1 2 3 4 5 6 7 8 9 10 11 12 13 14 15 16 17
000
FTUS46 KPQR 231139
TAFTTD
TAF
KTTD 231139Z 2312/2412 11005KT 5SM -RADZ FEW006 BKN015 OVC045
      TEMPO 2312/2316 3SM -RADZ BKN020 OVC035
     FM231800 24005KT P6SM SCT025 BKN050 OVC080
      TEMPO 2318/2322 -RADZ BKN025 OVC050
     FM240200 VRB03KT P6SM SCT025 BKN050
     FM240600 00000KT P6SM SCT008 BKN020 OVC060=

USA.gov is the U.S. government's official web portal to all federal, state and local government web resources and services.